sensor_id;sensor_type;location;lat;lon;timestamp;pressure;altitude;pressure_sealevel;temperature;humidity
50356;BME280;36264;51.296;-0.602;2023-03-21T00:00:33;101047.69;;;22.00;51.32
50356;BME280;36264;51.296;-0.602;2023-03-21T00:02:58;101036.00;;;22.02;51.43
50356;BME280;36264;51.296;-0.602;2023-03-21T00:05:24;101033.47;;;22.01;51.25
50356;BME280;36264;51.296;-0.602;2023-03-21T00:07:49;101028.31;;;21.99;51.65
50356;BME280;36264;51.296;-0.602;2023-03-21T00:10:15;101022.91;;;22.01;51.66
50356;BME280;36264;51.296;-0.602;2023-03-21T00:12:40;101022.91;;;22.01;51.44
50356;BME280;36264;51.296;-0.602;2023-03-21T00:15:08;101027.16;;;22.15;51.58
50356;BME280;36264;51.296;-0.602;2023-03-21T00:17:34;101021.50;;;22.08;51.47
50356;BME280;36264;51.296;-0.602;2023-03-21T00:20:01;101015.75;;;22.14;51.43
50356;BME280;36264;51.296;-0.602;2023-03-21T00:22:30;101018.50;;;22.13;51.31
50356;BME280;36264;51.296;-0.602;2023-03-21T00:24:56;101014.88;;;22.14;51.42
50356;BME280;36264;51.296;-0.602;2023-03-21T00:27:21;101015.94;;;22.00;51.67
50356;BME280;36264;51.296;-0.602;2023-03-21T00:29:48;101009.72;;;22.12;51.47
50356;BME280;36264;51.296;-0.602;2023-03-21T00:32:17;101004.66;;;22.09;51.62
50356;BME280;36264;51.296;-0.602;2023-03-21T00:34:43;100998.97;;;22.02;51.44
50356;BME280;36264;51.296;-0.602;2023-03-21T00:37:09;100997.81;;;22.06;51.48
50356;BME280;36264;51.296;-0.602;2023-03-21T00:39:36;101001.75;;;22.01;51.45
50356;BME280;36264;51.296;-0.602;2023-03-21T00:42:02;100992.88;;;22.02;51.51
50356;BME280;36264;51.296;-0.602;2023-03-21T00:44:28;100991.78;;;22.04;51.48
50356;BME280;36264;51.296;-0.602;2023-03-21T00:46:53;100988.63;;;21.99;51.68
50356;BME280;36264;51.296;-0.602;2023-03-21T00:49:19;100992.88;;;22.02;51.84
50356;BME280;36264;51.296;-0.602;2023-03-21T00:51:47;100985.66;;;22.04;51.63
50356;BME280;36264;51.296;-0.602;2023-03-21T00:54:16;100987.38;;;22.16;51.36
50356;BME280;36264;51.296;-0.602;2023-03-21T00:56:41;100977.47;;;22.07;51.26
50356;BME280;36264;51.296;-0.602;2023-03-21T00:59:06;100974.13;;;22.05;51.42
50356;BME280;36264;51.296;-0.602;2023-03-21T01:01:32;100974.94;;;21.94;51.82
50356;BME280;36264;51.296;-0.602;2023-03-21T01:03:58;100962.31;;;22.09;51.71
50356;BME280;36264;51.296;-0.602;2023-03-21T01:06:30;100959.19;;;22.04;51.76
50356;BME280;36264;51.296;-0.602;2023-03-21T01:08:56;100961.13;;;22.02;51.43
50356;BME280;36264;51.296;-0.602;2023-03-21T01:11:24;100958.16;;;22.18;51.03
50356;BME280;36264;51.296;-0.602;2023-03-21T01:13:51;100951.16;;;22.17;51.12
50356;BME280;36264;51.296;-0.602;2023-03-21T01:16:17;100957.13;;;21.96;51.75
50356;BME280;36264;51.296;-0.602;2023-03-21T01:18:42;100957.94;;;21.85;51.39
50356;BME280;36264;51.296;-0.602;2023-03-21T01:21:10;100950.56;;;22.02;51.14
50356;BME280;36264;51.296;-0.602;2023-03-21T01:23:38;100956.19;;;21.97;50.99
50356;BME280;36264;51.296;-0.602;2023-03-21T01:26:05;100948.94;;;21.88;51.44
50356;BME280;36264;51.296;-0.602;2023-03-21T01:28:31;100939.03;;;21.67;51.52
50356;BME280;36264;51.296;-0.602;2023-03-21T01:30:56;100932.56;;;21.71;51.43
50356;BME280;36264;51.296;-0.602;2023-03-21T01:33:24;100935.81;;;21.75;51.29
50356;BME280;36264;51.296;-0.602;2023-03-21T01:35:50;100932.34;;;21.75;51.40
50356;BME280;36264;51.296;-0.602;2023-03-21T01:38:15;100937.50;;;21.76;51.00
50356;BME280;36264;51.296;-0.602;2023-03-21T01:40:45;100935.13;;;21.84;51.05
50356;BME280;36264;51.296;-0.602;2023-03-21T01:43:22;100930.09;;;21.93;51.00
50356;BME280;36264;51.296;-0.602;2023-03-21T01:48:32;100921.31;;;21.92;51.05
50356;BME280;36264;51.296;-0.602;2023-03-21T01:50:59;100922.16;;;21.93;50.70
50356;BME280;36264;51.296;-0.602;2023-03-21T01:53:28;100916.28;;;22.00;50.61
50356;BME280;36264;51.296;-0.602;2023-03-21T01:56:11;100907.81;;;21.84;50.09
50356;BME280;36264;51.296;-0.602;2023-03-21T01:58:39;100900.25;;;21.79;50.47
50356;BME280;36264;51.296;-0.602;2023-03-21T02:01:07;100902.91;;;21.79;51.07
50356;BME280;36264;51.296;-0.602;2023-03-21T02:03:33;100900.69;;;21.62;50.82
50356;BME280;36264;51.296;-0.602;2023-03-21T02:06:21;100910.56;;;21.82;50.62
50356;BME280;36264;51.296;-0.602;2023-03-21T02:08:48;100908.03;;;21.69;50.79
50356;BME280;36264;51.296;-0.602;2023-03-21T02:11:14;100905.91;;;21.75;50.80
50356;BME280;36264;51.296;-0.602;2023-03-21T02:13:40;100910.44;;;21.73;50.59
50356;BME280;36264;51.296;-0.602;2023-03-21T02:16:28;100907.59;;;21.87;50.45
50356;BME280;36264;51.296;-0.602;2023-03-21T02:22:14;100903.25;;;21.75;50.11
50356;BME280;36264;51.296;-0.602;2023-03-21T02:25:16;100899.63;;;21.76;50.25
50356;BME280;36264;51.296;-0.602;2023-03-21T02:27:57;100889.81;;;21.78;50.11
50356;BME280;36264;51.296;-0.602;2023-03-21T02:38:37;100874.09;;;21.52;50.39
50356;BME280;36264;51.296;-0.602;2023-03-21T02:43:46;100862.34;;;21.56;50.02
50356;BME280;36264;51.296;-0.602;2023-03-21T02:46:20;100850.34;;;21.63;50.04
50356;BME280;36264;51.296;-0.602;2023-03-21T02:49:11;100860.06;;;21.63;50.17
50356;BME280;36264;51.296;-0.602;2023-03-21T02:51:42;100864.53;;;21.62;49.88
50356;BME280;36264;51.296;-0.602;2023-03-21T02:54:12;100855.50;;;21.65;49.73
50356;BME280;36264;51.296;-0.602;2023-03-21T02:56:39;100861.06;;;21.62;50.05
50356;BME280;36264;51.296;-0.602;2023-03-21T02:59:06;100869.69;;;21.64;49.61
50356;BME280;36264;51.296;-0.602;2023-03-21T03:01:32;100856.22;;;21.56;49.87
50356;BME280;36264;51.296;-0.602;2023-03-21T03:03:58;100846.97;;;21.61;49.69
50356;BME280;36264;51.296;-0.602;2023-03-21T03:06:35;100853.50;;;21.68;49.59
50356;BME280;36264;51.296;-0.602;2023-03-21T03:12:21;100838.69;;;21.66;49.38
50356;BME280;36264;51.296;-0.602;2023-03-21T03:15:21;100846.63;;;21.66;49.00
50356;BME280;36264;51.296;-0.602;2023-03-21T03:25:18;100824.88;;;21.62;49.56
50356;BME280;36264;51.296;-0.602;2023-03-21T03:27:47;100829.06;;;21.65;49.62
50356;BME280;36264;51.296;-0.602;2023-03-21T03:30:14;100819.38;;;21.65;49.44
50356;BME280;36264;51.296;-0.602;2023-03-21T03:35:12;100809.75;;;21.64;49.68
50356;BME280;36264;51.296;-0.602;2023-03-21T03:37:38;100802.66;;;21.65;49.54
50356;BME280;36264;51.296;-0.602;2023-03-21T03:40:14;100805.44;;;21.75;49.38
50356;BME280;36264;51.296;-0.602;2023-03-21T03:42:46;100804.72;;;21.84;49.24
50356;BME280;36264;51.296;-0.602;2023-03-21T03:45:14;100788.72;;;21.74;49.48
50356;BME280;36264;51.296;-0.602;2023-03-21T03:50:30;100782.97;;;21.69;49.00
50356;BME280;36264;51.296;-0.602;2023-03-21T03:53:18;100782.47;;;21.75;49.02
50356;BME280;36264;51.296;-0.602;2023-03-21T03:55:46;100774.06;;;21.70;49.05
50356;BME280;36264;51.296;-0.602;2023-03-21T03:58:17;100781.63;;;21.63;48.59
50356;BME280;36264;51.296;-0.602;2023-03-21T04:00:43;100789.66;;;21.50;49.09
50356;BME280;36264;51.296;-0.602;2023-03-21T04:03:09;100792.72;;;21.44;49.52
50356;BME280;36264;51.296;-0.602;2023-03-21T04:05:35;100774.53;;;21.52;49.31
50356;BME280;36264;51.296;-0.602;2023-03-21T04:08:00;100781.00;;;21.48;49.29
50356;BME280;36264;51.296;-0.602;2023-03-21T04:10:26;100781.31;;;21.44;49.58
50356;BME280;36264;51.296;-0.602;2023-03-21T04:12:52;100772.34;;;21.46;49.34
50356;BME280;36264;51.296;-0.602;2023-03-21T04:15:17;100780.06;;;21.49;49.02
50356;BME280;36264;51.296;-0.602;2023-03-21T04:17:46;100784.81;;;21.44;49.44
50356;BME280;36264;51.296;-0.602;2023-03-21T04:20:12;100782.59;;;21.51;49.64
50356;BME280;36264;51.296;-0.602;2023-03-21T04:22:38;100775.94;;;21.45;49.28
50356;BME280;36264;51.296;-0.602;2023-03-21T04:25:04;100775.59;;;21.50;49.39
50356;BME280;36264;51.296;-0.602;2023-03-21T04:27:30;100770.56;;;21.58;49.25
50356;BME280;36264;51.296;-0.602;2023-03-21T04:29:57;100781.94;;;21.47;49.15
50356;BME280;36264;51.296;-0.602;2023-03-21T04:32:23;100776.88;;;21.44;49.49
50356;BME280;36264;51.296;-0.602;2023-03-21T04:34:49;100776.88;;;21.44;49.29
50356;BME280;36264;51.296;-0.602;2023-03-21T04:37:21;100776.38;;;21.39;49.71
50356;BME280;36264;51.296;-0.602;2023-03-21T04:39:48;100769.81;;;21.45;49.66
50356;BME280;36264;51.296;-0.602;2023-03-21T04:42:14;100764.53;;;21.45;49.54
50356;BME280;36264;51.296;-0.602;2023-03-21T04:44:40;100757.66;;;21.42;49.32
50356;BME280;36264;51.296;-0.602;2023-03-21T04:47:06;100752.78;;;21.49;49.40
50356;BME280;36264;51.296;-0.602;2023-03-21T04:49:31;100748.31;;;21.38;49.58
50356;BME280;36264;51.296;-0.602;2023-03-21T04:51:57;100740.72;;;21.33;49.63
50356;BME280;36264;51.296;-0.602;2023-03-21T04:54:22;100735.81;;;21.29;49.55
50356;BME280;36264;51.296;-0.602;2023-03-21T04:56:48;100725.34;;;21.27;50.04
50356;BME280;36264;51.296;-0.602;2023-03-21T04:59:16;100728.69;;;21.29;49.90
50356;BME280;36264;51.296;-0.602;2023-03-21T05:01:41;100718.72;;;21.33;49.67
50356;BME280;36264;51.296;-0.602;2023-03-21T05:13:56;100738.88;;;21.11;49.89
50356;BME280;36264;51.296;-0.602;2023-03-21T05:16:21;100727.84;;;21.06;50.39
50356;BME280;36264;51.296;-0.602;2023-03-21T05:18:51;100729.25;;;21.10;50.23
50356;BME280;36264;51.296;-0.602;2023-03-21T05:21:18;100723.28;;;21.08;50.20
50356;BME280;36264;51.296;-0.602;2023-03-21T05:23:43;100730.97;;;21.11;50.32
50356;BME280;36264;51.296;-0.602;2023-03-21T05:26:09;100728.44;;;21.21;49.98
50356;BME280;36264;51.296;-0.602;2023-03-21T05:28:34;100716.78;;;21.12;50.15
50356;BME280;36264;51.296;-0.602;2023-03-21T05:31:03;100712.75;;;21.31;49.85
50356;BME280;36264;51.296;-0.602;2023-03-21T05:33:29;100707.06;;;21.13;50.13
50356;BME280;36264;51.296;-0.602;2023-03-21T05:35:54;100701.69;;;21.14;50.28
50356;BME280;36264;51.296;-0.602;2023-03-21T05:38:20;100704.19;;;21.16;50.02
50356;BME280;36264;51.296;-0.602;2023-03-21T05:40:46;100698.56;;;21.21;50.14
50356;BME280;36264;51.296;-0.602;2023-03-21T05:43:11;100705.50;;;21.10;50.44
50356;BME280;36264;51.296;-0.602;2023-03-21T05:45:37;100704.91;;;21.07;50.21
50356;BME280;36264;51.296;-0.602;2023-03-21T05:48:02;100701.16;;;21.09;50.49
50356;BME280;36264;51.296;-0.602;2023-03-21T05:50:28;100697.56;;;21.10;50.47
50356;BME280;36264;51.296;-0.602;2023-03-21T05:52:53;100693.00;;;21.12;50.36
50356;BME280;36264;51.296;-0.602;2023-03-21T05:55:19;100700.44;;;21.07;50.47
50356;BME280;36264;51.296;-0.602;2023-03-21T05:57:44;100705.38;;;21.12;50.40
50356;BME280;36264;51.296;-0.602;2023-03-21T06:00:10;100707.69;;;21.16;50.29
50356;BME280;36264;51.296;-0.602;2023-03-21T06:02:36;100694.34;;;21.18;50.73
50356;BME280;36264;51.296;-0.602;2023-03-21T06:05:03;100688.59;;;21.24;50.65
50356;BME280;36264;51.296;-0.602;2023-03-21T06:07:28;100695.66;;;21.12;50.72
50356;BME280;36264;51.296;-0.602;2023-03-21T06:09:53;100691.69;;;21.07;50.58
50356;BME280;36264;51.296;-0.602;2023-03-21T06:12:19;100693.50;;;21.06;50.77
50356;BME280;36264;51.296;-0.602;2023-03-21T06:14:44;100687.94;;;20.98;51.06
50356;BME280;36264;51.296;-0.602;2023-03-21T06:17:10;100694.44;;;20.94;50.91
50356;BME280;36264;51.296;-0.602;2023-03-21T06:19:35;100699.38;;;20.98;50.65
50356;BME280;36264;51.296;-0.602;2023-03-21T06:22:01;100702.72;;;21.01;50.88
50356;BME280;36264;51.296;-0.602;2023-03-21T06:24:26;100706.31;;;20.99;50.70
50356;BME280;36264;51.296;-0.602;2023-03-21T06:26:51;100705.00;;;21.05;50.66
50356;BME280;36264;51.296;-0.602;2023-03-21T06:29:17;100709.34;;;21.06;50.75
50356;BME280;36264;51.296;-0.602;2023-03-21T06:31:42;100712.59;;;21.10;50.87
50356;BME280;36264;51.296;-0.602;2023-03-21T06:34:07;100709.09;;;21.09;50.46
50356;BME280;36264;51.296;-0.602;2023-03-21T06:36:34;100705.25;;;21.13;50.71
50356;BME280;36264;51.296;-0.602;2023-03-21T06:39:00;100700.94;;;21.12;50.93
50356;BME280;36264;51.296;-0.602;2023-03-21T06:41:26;100703.97;;;21.19;50.51
50356;BME280;36264;51.296;-0.602;2023-03-21T06:43:51;100705.75;;;21.18;50.48
50356;BME280;36264;51.296;-0.602;2023-03-21T06:46:17;100701.78;;;21.13;50.81
50356;BME280;36264;51.296;-0.602;2023-03-21T06:48:42;100706.22;;;21.12;51.06
50356;BME280;36264;51.296;-0.602;2023-03-21T06:51:12;100700.75;;;21.38;50.42
50356;BME280;36264;51.296;-0.602;2023-03-21T06:53:38;100703.97;;;21.30;50.82
50356;BME280;36264;51.296;-0.602;2023-03-21T06:56:06;100695.47;;;21.38;50.76
50356;BME280;36264;51.296;-0.602;2023-03-21T06:58:32;100691.84;;;21.39;50.46
50356;BME280;36264;51.296;-0.602;2023-03-21T07:00:58;100685.41;;;21.55;50.51
50356;BME280;36264;51.296;-0.602;2023-03-21T07:03:24;100679.84;;;21.46;50.58
50356;BME280;36264;51.296;-0.602;2023-03-21T07:05:49;100684.16;;;21.47;50.48
50356;BME280;36264;51.296;-0.602;2023-03-21T07:08:15;100672.56;;;21.50;50.44
50356;BME280;36264;51.296;-0.602;2023-03-21T07:10:42;100674.13;;;21.64;50.63
50356;BME280;36264;51.296;-0.602;2023-03-21T07:13:08;100669.44;;;21.56;50.41
50356;BME280;36264;51.296;-0.602;2023-03-21T07:15:33;100671.72;;;21.49;50.46
50356;BME280;36264;51.296;-0.602;2023-03-21T07:18:05;100670.50;;;21.53;50.74
50356;BME280;36264;51.296;-0.602;2023-03-21T07:20:31;100665.34;;;21.52;50.62
50356;BME280;36264;51.296;-0.602;2023-03-21T07:22:57;100666.56;;;21.59;50.83
50356;BME280;36264;51.296;-0.602;2023-03-21T07:25:22;100663.78;;;21.49;50.62
50356;BME280;36264;51.296;-0.602;2023-03-21T07:27:48;100664.38;;;21.53;50.92
50356;BME280;36264;51.296;-0.602;2023-03-21T07:30:14;100670.38;;;21.55;50.91
50356;BME280;36264;51.296;-0.602;2023-03-21T07:32:40;100678.44;;;21.53;50.98
50356;BME280;36264;51.296;-0.602;2023-03-21T07:35:07;100685.16;;;21.58;51.06
50356;BME280;36264;51.296;-0.602;2023-03-21T07:37:33;100682.06;;;21.52;50.98
50356;BME280;36264;51.296;-0.602;2023-03-21T07:39:58;100682.97;;;21.40;51.23
50356;BME280;36264;51.296;-0.602;2023-03-21T07:42:23;100687.31;;;21.41;50.84
50356;BME280;36264;51.296;-0.602;2023-03-21T07:44:49;100685.63;;;21.29;51.32
50356;BME280;36264;51.296;-0.602;2023-03-21T07:47:15;100685.84;;;21.37;51.56
50356;BME280;36264;51.296;-0.602;2023-03-21T07:49:40;100691.13;;;21.37;51.48
50356;BME280;36264;51.296;-0.602;2023-03-21T07:52:06;100684.66;;;21.41;51.50
50356;BME280;36264;51.296;-0.602;2023-03-21T07:54:32;100682.88;;;21.53;51.34
50356;BME280;36264;51.296;-0.602;2023-03-21T07:56:57;100691.72;;;21.41;51.80
50356;BME280;36264;51.296;-0.602;2023-03-21T07:59:23;100691.66;;;21.53;51.70
50356;BME280;36264;51.296;-0.602;2023-03-21T08:01:48;100678.94;;;21.59;51.29
50356;BME280;36264;51.296;-0.602;2023-03-21T08:04:14;100675.06;;;21.63;51.69
50356;BME280;36264;51.296;-0.602;2023-03-21T08:06:39;100672.41;;;21.74;51.23
50356;BME280;36264;51.296;-0.602;2023-03-21T08:09:05;100681.56;;;21.70;51.68
50356;BME280;36264;51.296;-0.602;2023-03-21T08:11:31;100678.06;;;21.81;51.18
50356;BME280;36264;51.296;-0.602;2023-03-21T08:13:57;100678.97;;;22.02;51.00
50356;BME280;36264;51.296;-0.602;2023-03-21T08:16:22;100688.72;;;22.02;51.17
50356;BME280;36264;51.296;-0.602;2023-03-21T08:18:48;100684.69;;;21.75;51.54
50356;BME280;36264;51.296;-0.602;2023-03-21T08:21:13;100681.31;;;21.73;51.70
50356;BME280;36264;51.296;-0.602;2023-03-21T08:23:38;100673.50;;;21.83;51.64
50356;BME280;36264;51.296;-0.602;2023-03-21T08:26:04;100671.28;;;21.99;51.74
50356;BME280;36264;51.296;-0.602;2023-03-21T08:28:30;100661.91;;;22.06;51.32
50356;BME280;36264;51.296;-0.602;2023-03-21T08:30:55;100662.88;;;22.05;51.64
50356;BME280;36264;51.296;-0.602;2023-03-21T08:33:21;100665.38;;;22.07;52.02
50356;BME280;36264;51.296;-0.602;2023-03-21T08:35:47;100661.63;;;22.21;51.64
50356;BME280;36264;51.296;-0.602;2023-03-21T08:38:12;100658.28;;;22.30;51.75
50356;BME280;36264;51.296;-0.602;2023-03-21T08:40:38;100659.31;;;22.28;51.46
50356;BME280;36264;51.296;-0.602;2023-03-21T08:43:03;100655.34;;;22.22;51.31
50356;BME280;36264;51.296;-0.602;2023-03-21T08:45:29;100652.34;;;22.38;51.78
50356;BME280;36264;51.296;-0.602;2023-03-21T08:47:54;100644.75;;;22.45;51.46
50356;BME280;36264;51.296;-0.602;2023-03-21T08:50:22;100654.16;;;22.58;51.39
50356;BME280;36264;51.296;-0.602;2023-03-21T08:52:49;100644.94;;;22.53;51.91
50356;BME280;36264;51.296;-0.602;2023-03-21T08:55:16;100650.94;;;22.55;51.84
50356;BME280;36264;51.296;-0.602;2023-03-21T08:57:42;100648.16;;;22.56;51.47
50356;BME280;36264;51.296;-0.602;2023-03-21T09:00:11;100656.53;;;22.61;51.45
50356;BME280;36264;51.296;-0.602;2023-03-21T09:02:39;100652.75;;;22.54;51.89
50356;BME280;36264;51.296;-0.602;2023-03-21T09:05:05;100651.31;;;22.50;51.56
50356;BME280;36264;51.296;-0.602;2023-03-21T09:07:32;100644.69;;;22.56;51.58
50356;BME280;36264;51.296;-0.602;2023-03-21T09:09:59;100644.94;;;22.53;51.66
50356;BME280;36264;51.296;-0.602;2023-03-21T09:12:24;100648.97;;;22.36;51.97
50356;BME280;36264;51.296;-0.602;2023-03-21T09:14:50;100651.19;;;22.52;51.81
50356;BME280;36264;51.296;-0.602;2023-03-21T09:17:17;100645.69;;;22.43;51.73
50356;BME280;36264;51.296;-0.602;2023-03-21T09:19:43;100649.16;;;22.55;51.92
50356;BME280;36264;51.296;-0.602;2023-03-21T09:22:12;100646.75;;;22.52;51.83
50356;BME280;36264;51.296;-0.602;2023-03-21T09:24:39;100648.16;;;22.56;51.46
50356;BME280;36264;51.296;-0.602;2023-03-21T09:27:06;100647.19;;;22.57;51.86
50356;BME280;36264;51.296;-0.602;2023-03-21T09:29:32;100643.31;;;22.61;51.72
50356;BME280;36264;51.296;-0.602;2023-03-21T09:31:58;100641.53;;;22.62;51.75
50356;BME280;36264;51.296;-0.602;2023-03-21T09:34:23;100643.19;;;22.63;51.68
50356;BME280;36264;51.296;-0.602;2023-03-21T09:36:50;100646.22;;;22.58;51.90
50356;BME280;36264;51.296;-0.602;2023-03-21T09:39:20;100646.69;;;22.64;51.90
50356;BME280;36264;51.296;-0.602;2023-03-21T09:45:47;100656.59;;;22.83;52.27
50356;BME280;36264;51.296;-0.602;2023-03-21T09:48:44;100655.41;;;22.75;51.78
50356;BME280;36264;51.296;-0.602;2023-03-21T09:51:09;100656.38;;;22.74;52.17
50356;BME280;36264;51.296;-0.602;2023-03-21T09:53:39;100660.44;;;22.78;51.84
50356;BME280;36264;51.296;-0.602;2023-03-21T09:56:08;100658.03;;;22.75;52.02
50356;BME280;36264;51.296;-0.602;2023-03-21T09:58:49;100662.50;;;22.75;52.19
50356;BME280;36264;51.296;-0.602;2023-03-21T10:03:53;100663.97;;;22.68;52.37
50356;BME280;36264;51.296;-0.602;2023-03-21T10:06:21;100673.28;;;22.83;52.47
50356;BME280;36264;51.296;-0.602;2023-03-21T10:08:54;100664.84;;;22.68;52.72
50356;BME280;36264;51.296;-0.602;2023-03-21T10:11:31;100666.81;;;22.76;52.41
50356;BME280;36264;51.296;-0.602;2023-03-21T10:14:15;100657.53;;;22.82;52.41
50356;BME280;36264;51.296;-0.602;2023-03-21T10:16:48;100660.97;;;22.93;52.50
50356;BME280;36264;51.296;-0.602;2023-03-21T10:19:18;100658.31;;;22.93;52.26
50356;BME280;36264;51.296;-0.602;2023-03-21T10:24:15;100650.38;;;23.14;52.06
50356;BME280;36264;51.296;-0.602;2023-03-21T10:26:42;100643.69;;;23.20;51.64
50356;BME280;36264;51.296;-0.602;2023-03-21T10:29:09;100642.06;;;23.29;51.76
50356;BME280;36264;51.296;-0.602;2023-03-21T10:31:37;100640.94;;;23.01;51.80
50356;BME280;36264;51.296;-0.602;2023-03-21T10:34:12;100642.13;;;23.39;51.37
50356;BME280;36264;51.296;-0.602;2023-03-21T10:36:40;100628.16;;;23.37;51.50
50356;BME280;36264;51.296;-0.602;2023-03-21T10:39:14;100626.66;;;23.54;51.20
50356;BME280;36264;51.296;-0.602;2023-03-21T10:41:43;100628.50;;;23.53;51.23
50356;BME280;36264;51.296;-0.602;2023-03-21T10:44:11;100618.22;;;23.69;51.41
50356;BME280;36264;51.296;-0.602;2023-03-21T10:46:49;100606.50;;;23.82;50.67
50356;BME280;36264;51.296;-0.602;2023-03-21T10:49:15;100600.63;;;23.59;51.04
50356;BME280;36264;51.296;-0.602;2023-03-21T10:51:41;100608.16;;;23.63;51.01
50356;BME280;36264;51.296;-0.602;2023-03-21T10:54:11;100608.38;;;23.91;50.97
50356;BME280;36264;51.296;-0.602;2023-03-21T10:56:39;100612.56;;;24.23;49.84
50356;BME280;36264;51.296;-0.602;2023-03-21T10:59:05;100615.78;;;24.17;51.21
50356;BME280;36264;51.296;-0.602;2023-03-21T11:01:36;100606.84;;;24.18;50.29
50356;BME280;36264;51.296;-0.602;2023-03-21T11:04:18;100600.13;;;23.94;48.48
50356;BME280;36264;51.296;-0.602;2023-03-21T11:06:53;100592.00;;;23.66;49.86
50356;BME280;36264;51.296;-0.602;2023-03-21T11:09:24;100593.00;;;23.95;50.68
50356;BME280;36264;51.296;-0.602;2023-03-21T11:16:51;100582.50;;;23.74;49.93
50356;BME280;36264;51.296;-0.602;2023-03-21T11:19:19;100582.56;;;24.22;50.55
50356;BME280;36264;51.296;-0.602;2023-03-21T11:21:51;100584.63;;;23.90;50.50
50356;BME280;36264;51.296;-0.602;2023-03-21T11:24:17;100575.03;;;24.08;50.69
50356;BME280;36264;51.296;-0.602;2023-03-21T11:26:45;100577.78;;;24.36;50.41
50356;BME280;36264;51.296;-0.602;2023-03-21T11:31:46;100578.94;;;24.33;50.43
50356;BME280;36264;51.296;-0.602;2023-03-21T11:34:30;100576.38;;;24.51;49.10
50356;BME280;36264;51.296;-0.602;2023-03-21T11:36:58;100578.75;;;24.54;50.27
50356;BME280;36264;51.296;-0.602;2023-03-21T11:39:34;100576.63;;;24.68;48.92
50356;BME280;36264;51.296;-0.602;2023-03-21T11:42:02;100571.78;;;24.63;49.82
50356;BME280;36264;51.296;-0.602;2023-03-21T11:44:28;100577.19;;;24.52;49.51
50356;BME280;36264;51.296;-0.602;2023-03-21T11:46:55;100592.72;;;24.66;49.60
50356;BME280;36264;51.296;-0.602;2023-03-21T11:49:21;100591.06;;;24.65;49.32
50356;BME280;36264;51.296;-0.602;2023-03-21T11:55:10;100598.16;;;24.55;48.70
50356;BME280;36264;51.296;-0.602;2023-03-21T12:00:28;100604.88;;;24.69;48.37
50356;BME280;36264;51.296;-0.602;2023-03-21T12:03:05;100597.34;;;24.64;49.49
50356;BME280;36264;51.296;-0.602;2023-03-21T12:05:42;100597.31;;;24.74;48.81
50356;BME280;36264;51.296;-0.602;2023-03-21T12:08:24;100602.94;;;24.51;47.85
50356;BME280;36264;51.296;-0.602;2023-03-21T12:11:18;100591.84;;;24.85;48.60
50356;BME280;36264;51.296;-0.602;2023-03-21T12:13:56;100599.81;;;24.75;46.79
50356;BME280;36264;51.296;-0.602;2023-03-21T12:24:46;100579.28;;;24.68;48.61
50356;BME280;36264;51.296;-0.602;2023-03-21T12:30:21;100576.66;;;24.77;47.50
50356;BME280;36264;51.296;-0.602;2023-03-21T12:35:59;100576.94;;;24.74;46.70
50356;BME280;36264;51.296;-0.602;2023-03-21T12:41:25;100576.94;;;24.74;46.68
50356;BME280;36264;51.296;-0.602;2023-03-21T12:44:04;100574.44;;;24.63;46.67
50356;BME280;36264;51.296;-0.602;2023-03-21T12:46:54;100587.16;;;24.40;45.91
50356;BME280;36264;51.296;-0.602;2023-03-21T12:49:34;100591.63;;;24.59;45.91
50356;BME280;36264;51.296;-0.602;2023-03-21T12:52:24;100595.13;;;24.40;45.80
50356;BME280;36264;51.296;-0.602;2023-03-21T12:55:01;100619.00;;;24.01;45.95
50356;BME280;36264;51.296;-0.602;2023-03-21T13:03:02;100580.88;;;24.02;46.64
50356;BME280;36264;51.296;-0.602;2023-03-21T13:05:37;100581.44;;;24.25;46.36
50356;BME280;36264;51.296;-0.602;2023-03-21T13:10:42;100558.09;;;24.58;47.08
50356;BME280;36264;51.296;-0.602;2023-03-21T13:13:32;100564.03;;;24.80;45.71
50356;BME280;36264;51.296;-0.602;2023-03-21T13:21:36;100553.03;;;25.40;46.09
50356;BME280;36264;51.296;-0.602;2023-03-21T13:26:42;100542.22;;;25.13;46.82
50356;BME280;36264;51.296;-0.602;2023-03-21T13:29:20;100547.44;;;25.05;46.03
50356;BME280;36264;51.296;-0.602;2023-03-21T13:31:48;100532.44;;;25.14;46.41
50356;BME280;36264;51.296;-0.602;2023-03-21T13:34:14;100545.97;;;25.48;46.38
50356;BME280;36264;51.296;-0.602;2023-03-21T13:36:44;100540.69;;;25.66;45.90
50356;BME280;36264;51.296;-0.602;2023-03-21T13:39:17;100537.34;;;25.64;44.93
50356;BME280;36264;51.296;-0.602;2023-03-21T13:41:44;100526.22;;;25.33;46.15
50356;BME280;36264;51.296;-0.602;2023-03-21T13:44:22;100541.75;;;25.56;43.32
50356;BME280;36264;51.296;-0.602;2023-03-21T13:49:29;100535.44;;;25.75;43.69
50356;BME280;36264;51.296;-0.602;2023-03-21T13:51:56;100542.56;;;25.56;45.24
50356;BME280;36264;51.296;-0.602;2023-03-21T13:57:04;100518.28;;;25.87;45.43
50356;BME280;36264;51.296;-0.602;2023-03-21T13:59:43;100526.72;;;25.82;42.79
50356;BME280;36264;51.296;-0.602;2023-03-21T14:04:38;100532.66;;;26.12;45.35
50356;BME280;36264;51.296;-0.602;2023-03-21T14:07:15;100531.75;;;26.03;42.81
50356;BME280;36264;51.296;-0.602;2023-03-21T14:09:52;100536.91;;;26.05;44.98
50356;BME280;36264;51.296;-0.602;2023-03-21T14:12:39;100533.94;;;26.08;42.96
50356;BME280;36264;51.296;-0.602;2023-03-21T14:15:20;100532.94;;;25.91;43.42
50356;BME280;36264;51.296;-0.602;2023-03-21T14:17:53;100545.59;;;25.43;42.68
50356;BME280;36264;51.296;-0.602;2023-03-21T14:20:31;100536.09;;;25.41;43.73
50356;BME280;36264;51.296;-0.602;2023-03-21T14:22:57;100533.91;;;25.54;45.00
50356;BME280;36264;51.296;-0.602;2023-03-21T14:25:25;100537.97;;;25.30;45.00
50356;BME280;36264;51.296;-0.602;2023-03-21T14:28:00;100534.28;;;25.41;44.62
50356;BME280;36264;51.296;-0.602;2023-03-21T14:30:33;100528.22;;;25.49;43.62
50356;BME280;36264;51.296;-0.602;2023-03-21T14:33:24;100534.28;;;25.41;42.89
50356;BME280;36264;51.296;-0.602;2023-03-21T14:35:50;100529.75;;;25.24;44.44